sensor_id;sensor_type;location;lat;lon;timestamp;pressure;altitude;pressure_sealevel;temperature;humidity
85066;BME280;75401;52.588;13.224;2024-01-15T00:02:06;99077.53;;;3.84;80.25
85066;BME280;75401;52.588;13.224;2024-01-15T00:04:32;99079.59;;;3.90;80.32
85066;BME280;75401;52.588;13.224;2024-01-15T00:07:00;99066.38;;;3.90;80.32
85066;BME280;75401;52.588;13.224;2024-01-15T00:09:26;99049.03;;;3.60;79.94
85066;BME280;75401;52.588;13.224;2024-01-15T00:11:51;99058.53;;;3.80;80.42
85066;BME280;75401;52.588;13.224;2024-01-15T00:14:18;99061.00;;;3.82;80.38
85066;BME280;75401;52.588;13.224;2024-01-15T00:16:43;99050.34;;;3.92;80.37
85066;BME280;75401;52.588;13.224;2024-01-15T00:19:09;99050.88;;;3.77;80.47
85066;BME280;75401;52.588;13.224;2024-01-15T00:21:34;99041.44;;;3.75;80.17
85066;BME280;75401;52.588;13.224;2024-01-15T00:23:59;99050.63;;;3.71;80.42
85066;BME280;75401;52.588;13.224;2024-01-15T00:26:25;99032.22;;;3.79;80.45
85066;BME280;75401;52.588;13.224;2024-01-15T00:28:50;99030.47;;;3.70;80.44
85066;BME280;75401;52.588;13.224;2024-01-15T00:31:17;99019.75;;;3.71;80.20
85066;BME280;75401;52.588;13.224;2024-01-15T00:33:42;99013.03;;;3.77;79.87
85066;BME280;75401;52.588;13.224;2024-01-15T00:36:08;99009.53;;;3.76;80.10
85066;BME280;75401;52.588;13.224;2024-01-15T00:38:33;99024.81;;;3.83;79.93
85066;BME280;75401;52.588;13.224;2024-01-15T00:40:58;99013.50;;;3.72;79.71
85066;BME280;75401;52.588;13.224;2024-01-15T00:43:24;99010.16;;;3.88;79.75
85066;BME280;75401;52.588;13.224;2024-01-15T00:45:49;99025.31;;;3.86;79.41
85066;BME280;75401;52.588;13.224;2024-01-15T00:48:15;99016.44;;;3.87;80.09
85066;BME280;75401;52.588;13.224;2024-01-15T00:50:41;99014.06;;;3.84;79.65
85066;BME280;75401;52.588;13.224;2024-01-15T00:53:06;99003.66;;;3.83;80.29
85066;BME280;75401;52.588;13.224;2024-01-15T00:55:32;99012.19;;;3.76;80.43
85066;BME280;75401;52.588;13.224;2024-01-15T00:57:57;99013.09;;;3.67;80.65
85066;BME280;75401;52.588;13.224;2024-01-15T01:00:22;99008.13;;;3.64;80.98
85066;BME280;75401;52.588;13.224;2024-01-15T01:02:48;98997.66;;;3.63;81.04
85066;BME280;75401;52.588;13.224;2024-01-15T01:05:14;99015.34;;;3.45;81.93
85066;BME280;75401;52.588;13.224;2024-01-15T01:07:40;99008.50;;;3.52;82.16
85066;BME280;75401;52.588;13.224;2024-01-15T01:10:06;98998.97;;;3.59;81.66
85066;BME280;75401;52.588;13.224;2024-01-15T01:12:31;98999.88;;;3.50;82.18
85066;BME280;75401;52.588;13.224;2024-01-15T01:14:56;98999.88;;;3.50;82.29
85066;BME280;75401;52.588;13.224;2024-01-15T01:17:22;99006.22;;;3.57;81.95
85066;BME280;75401;52.588;13.224;2024-01-15T01:19:47;99005.53;;;3.55;82.12
85066;BME280;75401;52.588;13.224;2024-01-15T01:22:14;99007.47;;;3.53;81.85
85066;BME280;75401;52.588;13.224;2024-01-15T01:24:39;99015.66;;;3.42;82.46
85066;BME280;75401;52.588;13.224;2024-01-15T01:27:04;99004.69;;;3.37;82.36
85066;BME280;75401;52.588;13.224;2024-01-15T01:29:30;99004.72;;;3.54;82.07
85066;BME280;75401;52.588;13.224;2024-01-15T01:31:55;98995.41;;;3.50;81.97
85066;BME280;75401;52.588;13.224;2024-01-15T01:34:20;99001.22;;;3.54;81.75
85066;BME280;75401;52.588;13.224;2024-01-15T01:36:45;98998.28;;;3.39;82.30
85066;BME280;75401;52.588;13.224;2024-01-15T01:39:12;99004.03;;;3.52;82.30
85066;BME280;75401;52.588;13.224;2024-01-15T01:41:38;98991.50;;;3.54;82.42
85066;BME280;75401;52.588;13.224;2024-01-15T01:44:03;99007.56;;;3.43;82.85
85066;BME280;75401;52.588;13.224;2024-01-15T01:46:29;99001.22;;;3.54;82.27
85066;BME280;75401;52.588;13.224;2024-01-15T01:48:55;98980.38;;;3.33;82.25
85066;BME280;75401;52.588;13.224;2024-01-15T01:51:21;98992.25;;;3.47;82.05
85066;BME280;75401;52.588;13.224;2024-01-15T01:53:48;98954.97;;;3.23;81.64
85066;BME280;75401;52.588;13.224;2024-01-15T01:56:15;98986.13;;;3.46;81.33
85066;BME280;75401;52.588;13.224;2024-01-15T01:58:40;98984.69;;;3.52;81.45
85066;BME280;75401;52.588;13.224;2024-01-15T02:01:06;98993.88;;;3.48;81.66
85066;BME280;75401;52.588;13.224;2024-01-15T02:03:32;98973.97;;;3.53;81.04
85066;BME280;75401;52.588;13.224;2024-01-15T02:05:59;98962.16;;;3.48;81.15
85066;BME280;75401;52.588;13.224;2024-01-15T02:08:25;98974.34;;;3.41;80.99
85066;BME280;75401;52.588;13.224;2024-01-15T02:10:52;98965.81;;;3.47;80.82
85066;BME280;75401;52.588;13.224;2024-01-15T02:13:19;98979.88;;;3.47;80.77
85066;BME280;75401;52.588;13.224;2024-01-15T02:15:45;98964.53;;;3.51;80.50
85066;BME280;75401;52.588;13.224;2024-01-15T02:18:10;98973.66;;;3.39;80.51
85066;BME280;75401;52.588;13.224;2024-01-15T02:20:36;98969.88;;;3.41;80.03
85066;BME280;75401;52.588;13.224;2024-01-15T02:23:08;98952.31;;;3.50;80.49
85066;BME280;75401;52.588;13.224;2024-01-15T02:25:34;98944.28;;;3.42;79.83
85066;BME280;75401;52.588;13.224;2024-01-15T02:28:00;98953.44;;;3.47;79.42
85066;BME280;75401;52.588;13.224;2024-01-15T02:30:27;98954.41;;;3.46;79.06
85066;BME280;75401;52.588;13.224;2024-01-15T02:32:53;98956.88;;;3.48;78.83
85066;BME280;75401;52.588;13.224;2024-01-15T02:35:18;98946.47;;;3.46;79.06
85066;BME280;75401;52.588;13.224;2024-01-15T02:37:44;98943.00;;;3.46;78.48
85066;BME280;75401;52.588;13.224;2024-01-15T02:40:11;98956.03;;;3.30;78.43
85066;BME280;75401;52.588;13.224;2024-01-15T02:42:37;98952.13;;;3.51;78.49
85066;BME280;75401;52.588;13.224;2024-01-15T02:45:02;98946.66;;;3.45;78.52
85066;BME280;75401;52.588;13.224;2024-01-15T02:47:28;98948.66;;;3.51;78.58
85066;BME280;75401;52.588;13.224;2024-01-15T02:49:53;98953.44;;;3.47;77.97
85066;BME280;75401;52.588;13.224;2024-01-15T02:52:18;98958.72;;;3.47;78.54
85066;BME280;75401;52.588;13.224;2024-01-15T02:54:44;98946.31;;;3.48;78.53
85066;BME280;75401;52.588;13.224;2024-01-15T02:57:11;98950.19;;;3.53;78.19
85066;BME280;75401;52.588;13.224;2024-01-15T02:59:36;98920.66;;;3.40;77.62
85066;BME280;75401;52.588;13.224;2024-01-15T03:02:02;98934.19;;;3.55;77.64
85066;BME280;75401;52.588;13.224;2024-01-15T03:04:27;98931.53;;;3.55;77.13
85066;BME280;75401;52.588;13.224;2024-01-15T03:06:52;98931.97;;;3.68;77.12
85066;BME280;75401;52.588;13.224;2024-01-15T03:09:18;98921.91;;;3.71;76.66
85066;BME280;75401;52.588;13.224;2024-01-15T03:11:44;98930.06;;;3.60;76.81
85066;BME280;75401;52.588;13.224;2024-01-15T03:14:10;98928.25;;;3.61;76.52
85066;BME280;75401;52.588;13.224;2024-01-15T03:16:36;98923.16;;;3.59;77.09
85066;BME280;75401;52.588;13.224;2024-01-15T03:19:01;98933.94;;;3.48;76.69
85066;BME280;75401;52.588;13.224;2024-01-15T03:21:26;98930.31;;;3.67;76.63
85066;BME280;75401;52.588;13.224;2024-01-15T03:23:52;98924.88;;;3.51;76.71
85066;BME280;75401;52.588;13.224;2024-01-15T03:26:17;98919.38;;;3.62;76.55
85066;BME280;75401;52.588;13.224;2024-01-15T03:28:42;98909.38;;;3.56;76.67
85066;BME280;75401;52.588;13.224;2024-01-15T03:31:09;98910.13;;;3.66;76.61
85066;BME280;75401;52.588;13.224;2024-01-15T03:33:34;98915.22;;;3.59;76.53
85066;BME280;75401;52.588;13.224;2024-01-15T03:36:00;98913.78;;;3.47;76.61
85066;BME280;75401;52.588;13.224;2024-01-15T03:38:28;98909.38;;;3.56;76.50
85066;BME280;75401;52.588;13.224;2024-01-15T03:40:53;98909.47;;;3.64;76.38
85066;BME280;75401;52.588;13.224;2024-01-15T03:43:19;98912.34;;;3.53;76.10
85066;BME280;75401;52.588;13.224;2024-01-15T03:45:44;98903.03;;;3.66;75.96
85066;BME280;75401;52.588;13.224;2024-01-15T03:48:11;98893.22;;;3.59;75.90
85066;BME280;75401;52.588;13.224;2024-01-15T03:50:36;98894.13;;;3.67;75.98
85066;BME280;75401;52.588;13.224;2024-01-15T03:53:01;98898.59;;;3.49;75.65
85066;BME280;75401;52.588;13.224;2024-01-15T03:55:27;98896.09;;;3.65;76.04
85066;BME280;75401;52.588;13.224;2024-01-15T03:57:52;98878.09;;;3.69;76.27
85066;BME280;75401;52.588;13.224;2024-01-15T04:00:18;98885.56;;;3.73;75.79
85066;BME280;75401;52.588;13.224;2024-01-15T04:02:43;98884.53;;;3.66;76.14
85066;BME280;75401;52.588;13.224;2024-01-15T04:05:10;98875.94;;;3.64;75.98
85066;BME280;75401;52.588;13.224;2024-01-15T04:07:35;98867.91;;;3.74;76.34
85066;BME280;75401;52.588;13.224;2024-01-15T04:10:01;98868.59;;;3.58;75.52
85066;BME280;75401;52.588;13.224;2024-01-15T04:12:26;98872.81;;;3.69;76.11
85066;BME280;75401;52.588;13.224;2024-01-15T04:14:51;98867.06;;;3.73;75.74
85066;BME280;75401;52.588;13.224;2024-01-15T04:17:18;98865.59;;;3.53;75.43
85066;BME280;75401;52.588;13.224;2024-01-15T04:19:44;98884.34;;;3.60;75.31
85066;BME280;75401;52.588;13.224;2024-01-15T04:22:10;98879.03;;;3.60;75.66
85066;BME280;75401;52.588;13.224;2024-01-15T04:24:36;98878.88;;;3.61;75.68
85066;BME280;75401;52.588;13.224;2024-01-15T04:27:01;98872.53;;;3.72;75.84
85066;BME280;75401;52.588;13.224;2024-01-15T04:29:26;98879.03;;;3.60;75.12
85066;BME280;75401;52.588;13.224;2024-01-15T04:31:53;98875.94;;;3.64;75.00
85066;BME280;75401;52.588;13.224;2024-01-15T04:34:18;98870.91;;;3.79;74.30
85066;BME280;75401;52.588;13.224;2024-01-15T04:36:44;98867.00;;;3.83;75.09
85066;BME280;75401;52.588;13.224;2024-01-15T04:39:10;98867.91;;;3.74;75.03
85066;BME280;75401;52.588;13.224;2024-01-15T04:41:35;98857.63;;;3.71;74.70
85066;BME280;75401;52.588;13.224;2024-01-15T04:44:01;98862.91;;;3.71;74.51
85066;BME280;75401;52.588;13.224;2024-01-15T04:46:27;98866.47;;;3.79;74.37
85066;BME280;75401;52.588;13.224;2024-01-15T04:48:52;98864.94;;;3.77;74.24
85066;BME280;75401;52.588;13.224;2024-01-15T04:51:17;98851.63;;;3.87;74.55
85066;BME280;75401;52.588;13.224;2024-01-15T04:53:44;98812.59;;;3.55;74.42
85066;BME280;75401;52.588;13.224;2024-01-15T04:56:10;98847.38;;;3.94;74.84
85066;BME280;75401;52.588;13.224;2024-01-15T04:58:36;98833.91;;;3.79;74.30
85066;BME280;75401;52.588;13.224;2024-01-15T05:01:01;98841.72;;;3.89;74.15
85066;BME280;75401;52.588;13.224;2024-01-15T05:03:26;98854.97;;;3.71;74.14
85066;BME280;75401;52.588;13.224;2024-01-15T05:05:52;98843.81;;;3.77;73.94
85066;BME280;75401;52.588;13.224;2024-01-15T05:08:17;98850.06;;;3.76;73.63
85066;BME280;75401;52.588;13.224;2024-01-15T05:10:42;98841.09;;;3.95;74.05
85066;BME280;75401;52.588;13.224;2024-01-15T05:13:09;98850.00;;;3.94;74.46
85066;BME280;75401;52.588;13.224;2024-01-15T05:15:34;98864.00;;;3.86;74.23
85066;BME280;75401;52.588;13.224;2024-01-15T05:18:00;98848.16;;;3.86;74.95
85066;BME280;75401;52.588;13.224;2024-01-15T05:20:25;98851.50;;;3.88;74.51
85066;BME280;75401;52.588;13.224;2024-01-15T05:22:50;98847.00;;;3.89;74.49
85066;BME280;75401;52.588;13.224;2024-01-15T05:25:15;98837.13;;;3.91;74.10
85066;BME280;75401;52.588;13.224;2024-01-15T05:27:41;98822.19;;;3.81;74.10
85066;BME280;75401;52.588;13.224;2024-01-15T05:30:08;98830.94;;;3.82;74.31
85066;BME280;75401;52.588;13.224;2024-01-15T05:32:34;98823.44;;;3.95;73.77
85066;BME280;75401;52.588;13.224;2024-01-15T05:34:59;98839.44;;;3.94;73.82
85066;BME280;75401;52.588;13.224;2024-01-15T05:37:24;98828.72;;;3.95;73.83
85066;BME280;75401;52.588;13.224;2024-01-15T05:39:50;98825.59;;;4.00;74.26
85066;BME280;75401;52.588;13.224;2024-01-15T05:42:15;98825.41;;;4.01;73.39
85066;BME280;75401;52.588;13.224;2024-01-15T05:44:40;98817.47;;;3.93;73.51
85066;BME280;75401;52.588;13.224;2024-01-15T05:47:07;98828.59;;;4.05;73.34
85066;BME280;75401;52.588;13.224;2024-01-15T05:49:32;98832.91;;;4.06;73.28
85066;BME280;75401;52.588;13.224;2024-01-15T05:51:58;98833.34;;;3.93;74.68
85066;BME280;75401;52.588;13.224;2024-01-15T05:54:23;98824.09;;;3.97;74.52
85066;BME280;75401;52.588;13.224;2024-01-15T05:56:48;98827.31;;;3.83;75.73
85066;BME280;75401;52.588;13.224;2024-01-15T05:59:14;98822.06;;;3.91;74.88
85066;BME280;75401;52.588;13.224;2024-01-15T06:01:39;98828.53;;;3.97;75.33
85066;BME280;75401;52.588;13.224;2024-01-15T06:04:06;98831.66;;;3.92;75.15
85066;BME280;75401;52.588;13.224;2024-01-15T06:06:31;98831.31;;;3.87;75.15
85066;BME280;75401;52.588;13.224;2024-01-15T06:08:56;98821.50;;;4.05;75.22
85066;BME280;75401;52.588;13.224;2024-01-15T06:11:22;98812.72;;;4.05;75.11
85066;BME280;75401;52.588;13.224;2024-01-15T06:13:47;98837.63;;;3.94;74.84
85066;BME280;75401;52.588;13.224;2024-01-15T06:16:14;98824.09;;;3.97;74.69
85066;BME280;75401;52.588;13.224;2024-01-15T06:18:39;98826.53;;;3.91;74.39
85066;BME280;75401;52.588;13.224;2024-01-15T06:21:06;98824.97;;;4.06;73.95
85066;BME280;75401;52.588;13.224;2024-01-15T06:23:31;98827.81;;;4.12;73.71
85066;BME280;75401;52.588;13.224;2024-01-15T06:25:56;98829.75;;;4.02;73.91
85066;BME280;75401;52.588;13.224;2024-01-15T06:28:22;98818.63;;;3.99;74.19
85066;BME280;75401;52.588;13.224;2024-01-15T06:30:47;98805.94;;;4.02;74.79
85066;BME280;75401;52.588;13.224;2024-01-15T06:33:13;98811.44;;;4.09;74.67
85066;BME280;75401;52.588;13.224;2024-01-15T06:35:38;98812.97;;;3.94;75.23
85066;BME280;75401;52.588;13.224;2024-01-15T06:38:05;98805.22;;;3.92;75.54
85066;BME280;75401;52.588;13.224;2024-01-15T06:40:30;98824.09;;;3.97;75.56
85066;BME280;75401;52.588;13.224;2024-01-15T06:42:55;98827.22;;;3.93;75.31
85066;BME280;75401;52.588;13.224;2024-01-15T06:45:20;98819.09;;;3.94;75.84
85066;BME280;75401;52.588;13.224;2024-01-15T06:47:46;98809.94;;;4.06;75.21
85066;BME280;75401;52.588;13.224;2024-01-15T06:50:11;98834.75;;;4.13;74.40
85066;BME280;75401;52.588;13.224;2024-01-15T06:52:36;98836.09;;;4.17;74.69
85066;BME280;75401;52.588;13.224;2024-01-15T06:55:04;98829.34;;;4.23;74.57
85066;BME280;75401;52.588;13.224;2024-01-15T06:57:29;98827.00;;;4.20;74.43
85066;BME280;75401;52.588;13.224;2024-01-15T06:59:55;98833.06;;;4.04;74.39
85066;BME280;75401;52.588;13.224;2024-01-15T07:02:20;98836.84;;;4.02;74.10
85066;BME280;75401;52.588;13.224;2024-01-15T07:04:45;98832.97;;;3.88;73.49
85066;BME280;75401;52.588;13.224;2024-01-15T07:07:11;98849.69;;;3.97;73.63
85066;BME280;75401;52.588;13.224;2024-01-15T07:09:36;98840.06;;;4.13;73.07
85066;BME280;75401;52.588;13.224;2024-01-15T07:12:03;98832.75;;;4.07;73.15
85066;BME280;75401;52.588;13.224;2024-01-15T07:14:28;98846.19;;;4.14;72.79
85066;BME280;75401;52.588;13.224;2024-01-15T07:16:54;98861.47;;;4.02;72.84
85066;BME280;75401;52.588;13.224;2024-01-15T07:19:19;98855.28;;;4.19;73.12
85066;BME280;75401;52.588;13.224;2024-01-15T07:21:44;98848.00;;;4.13;73.61
85066;BME280;75401;52.588;13.224;2024-01-15T07:24:10;98859.66;;;4.03;72.69
85066;BME280;75401;52.588;13.224;2024-01-15T07:26:35;98859.50;;;4.04;72.94
85066;BME280;75401;52.588;13.224;2024-01-15T07:29:02;98869.72;;;4.25;72.40
85066;BME280;75401;52.588;13.224;2024-01-15T07:31:27;98881.28;;;4.24;72.64
85066;BME280;75401;52.588;13.224;2024-01-15T07:33:52;98868.41;;;4.29;72.29
85066;BME280;75401;52.588;13.224;2024-01-15T07:36:17;98880.16;;;4.34;71.92
85066;BME280;75401;52.588;13.224;2024-01-15T07:38:43;98888.88;;;4.19;71.92
85066;BME280;75401;52.588;13.224;2024-01-15T07:41:08;98884.09;;;4.22;71.91
85066;BME280;75401;52.588;13.224;2024-01-15T07:43:33;98894.72;;;4.30;72.04
85066;BME280;75401;52.588;13.224;2024-01-15T07:46:00;98896.34;;;4.23;72.85
85066;BME280;75401;52.588;13.224;2024-01-15T07:48:26;98899.34;;;4.28;72.46
85066;BME280;75401;52.588;13.224;2024-01-15T07:50:52;98890.03;;;4.16;72.38
85066;BME280;75401;52.588;13.224;2024-01-15T07:53:17;98896.66;;;4.20;72.34
85066;BME280;75401;52.588;13.224;2024-01-15T07:55:42;98878.75;;;4.14;72.19
85066;BME280;75401;52.588;13.224;2024-01-15T07:58:08;98887.81;;;4.12;72.14
85066;BME280;75401;52.588;13.224;2024-01-15T08:00:33;98893.47;;;4.17;72.47
85066;BME280;75401;52.588;13.224;2024-01-15T08:03:00;98888.72;;;4.20;72.83
85066;BME280;75401;52.588;13.224;2024-01-15T08:05:25;98893.81;;;4.14;72.99
85066;BME280;75401;52.588;13.224;2024-01-15T08:07:50;98894.06;;;4.28;72.76
85066;BME280;75401;52.588;13.224;2024-01-15T08:10:16;98891.78;;;4.08;73.08
85066;BME280;75401;52.588;13.224;2024-01-15T08:12:41;98886.91;;;4.21;73.10
85066;BME280;75401;52.588;13.224;2024-01-15T08:15:07;98882.97;;;4.33;73.43
85066;BME280;75401;52.588;13.224;2024-01-15T08:17:32;98879.09;;;4.19;73.09
85066;BME280;75401;52.588;13.224;2024-01-15T08:19:59;98902.59;;;4.22;72.72
85066;BME280;75401;52.588;13.224;2024-01-15T08:22:24;98905.59;;;4.27;72.17
85066;BME280;75401;52.588;13.224;2024-01-15T08:24:49;98897.56;;;4.37;72.53
85066;BME280;75401;52.588;13.224;2024-01-15T08:27:15;98895.25;;;4.34;72.80
85066;BME280;75401;52.588;13.224;2024-01-15T08:29:40;98907.94;;;4.30;71.68
85066;BME280;75401;52.588;13.224;2024-01-15T08:32:05;98892.06;;;4.30;72.42
85066;BME280;75401;52.588;13.224;2024-01-15T08:34:31;98902.13;;;4.27;72.68
85066;BME280;75401;52.588;13.224;2024-01-15T08:36:58;98898.50;;;4.28;72.61
85066;BME280;75401;52.588;13.224;2024-01-15T08:39:23;98909.09;;;4.28;72.25
85066;BME280;75401;52.588;13.224;2024-01-15T08:41:48;98904.31;;;4.31;72.53
85066;BME280;75401;52.588;13.224;2024-01-15T08:44:13;98912.72;;;4.27;72.08
85066;BME280;75401;52.588;13.224;2024-01-15T08:46:39;98902.59;;;4.22;72.54
85066;BME280;75401;52.588;13.224;2024-01-15T08:49:04;98897.53;;;4.29;72.22
85066;BME280;75401;52.588;13.224;2024-01-15T08:51:29;98906.63;;;4.34;72.39
85066;BME280;75401;52.588;13.224;2024-01-15T08:53:56;98909.72;;;4.22;72.42
85066;BME280;75401;52.588;13.224;2024-01-15T08:56:22;98907.28;;;4.28;72.86
85066;BME280;75401;52.588;13.224;2024-01-15T08:58:47;98920.22;;;4.31;72.83
85066;BME280;75401;52.588;13.224;2024-01-15T09:01:13;98926.66;;;4.37;72.33
85066;BME280;75401;52.588;13.224;2024-01-15T09:03:39;98894.88;;;4.29;72.51
85066;BME280;75401;52.588;13.224;2024-01-15T09:06:04;98930.81;;;4.39;72.96
85066;BME280;75401;52.588;13.224;2024-01-15T09:08:30;98922.91;;;4.47;72.70
85066;BME280;75401;52.588;13.224;2024-01-15T09:10:56;98926.53;;;4.38;72.92
85066;BME280;75401;52.588;13.224;2024-01-15T09:13:22;98924.84;;;4.37;73.25
85066;BME280;75401;52.588;13.224;2024-01-15T09:15:47;98933.16;;;4.42;72.77
85066;BME280;75401;52.588;13.224;2024-01-15T09:18:12;98937.06;;;4.30;72.49
85066;BME280;75401;52.588;13.224;2024-01-15T09:20:38;98941.75;;;4.36;72.17
85066;BME280;75401;52.588;13.224;2024-01-15T09:23:03;98937.78;;;4.40;72.73
85066;BME280;75401;52.588;13.224;2024-01-15T09:25:29;98938.84;;;4.56;72.55
85066;BME280;75401;52.588;13.224;2024-01-15T09:27:57;98941.31;;;4.49;72.56
85066;BME280;75401;52.588;13.224;2024-01-15T09:30:22;98941.78;;;4.44;72.82
85066;BME280;75401;52.588;13.224;2024-01-15T09:32:47;98947.44;;;4.50;72.46
85066;BME280;75401;52.588;13.224;2024-01-15T09:35:13;98934.56;;;4.55;72.17
85066;BME280;75401;52.588;13.224;2024-01-15T09:37:39;98935.06;;;4.58;71.52
85066;BME280;75401;52.588;13.224;2024-01-15T09:40:06;98940.66;;;4.55;71.81
85066;BME280;75401;52.588;13.224;2024-01-15T09:42:33;98947.19;;;4.69;71.29
85066;BME280;75401;52.588;13.224;2024-01-15T09:45:01;98940.13;;;4.77;71.06
85066;BME280;75401;52.588;13.224;2024-01-15T09:47:27;98944.81;;;4.91;71.41
85066;BME280;75401;52.588;13.224;2024-01-15T09:49:52;98942.13;;;4.83;71.16
85066;BME280;75401;52.588;13.224;2024-01-15T09:52:18;98942.47;;;4.80;71.47
85066;BME280;75401;52.588;13.224;2024-01-15T09:54:44;98932.72;;;4.89;71.35
85066;BME280;75401;52.588;13.224;2024-01-15T09:57:10;98937.78;;;4.74;71.23
85066;BME280;75401;52.588;13.224;2024-01-15T09:59:36;98927.16;;;4.66;71.86
85066;BME280;75401;52.588;13.224;2024-01-15T10:02:05;98934.53;;;4.80;71.75
85066;BME280;75401;52.588;13.224;2024-01-15T10:04:31;98940.94;;;4.78;71.78
85066;BME280;75401;52.588;13.224;2024-01-15T10:06:57;98948.03;;;4.69;71.55
85066;BME280;75401;52.588;13.224;2024-01-15T10:09:25;98932.53;;;4.82;71.27
85066;BME280;75401;52.588;13.224;2024-01-15T10:11:50;98936.41;;;4.62;71.84
85066;BME280;75401;52.588;13.224;2024-01-15T10:14:16;98938.78;;;4.73;71.65
85066;BME280;75401;52.588;13.224;2024-01-15T10:16:41;98907.31;;;4.70;71.37
85066;BME280;75401;52.588;13.224;2024-01-15T10:19:09;98928.38;;;4.80;70.98
85066;BME280;75401;52.588;13.224;2024-01-15T10:21:34;98930.56;;;4.84;71.44
85066;BME280;75401;52.588;13.224;2024-01-15T10:24:00;98927.06;;;4.84;70.48
85066;BME280;75401;52.588;13.224;2024-01-15T10:26:26;98936.50;;;4.86;70.65
85066;BME280;75401;52.588;13.224;2024-01-15T10:28:51;98930.91;;;4.89;70.32
85066;BME280;75401;52.588;13.224;2024-01-15T10:31:17;98946.66;;;4.99;69.96
85066;BME280;75401;52.588;13.224;2024-01-15T10:33:42;98936.19;;;4.89;70.52
85066;BME280;75401;52.588;13.224;2024-01-15T10:36:09;98942.59;;;4.79;70.53
85066;BME280;75401;52.588;13.224;2024-01-15T10:38:36;98940.31;;;4.84;70.57
85066;BME280;75401;52.588;13.224;2024-01-15T10:41:01;98938.34;;;4.94;70.24
85066;BME280;75401;52.588;13.224;2024-01-15T10:43:27;98944.78;;;4.83;69.79
85066;BME280;75401;52.588;13.224;2024-01-15T10:45:53;98940.53;;;4.98;70.49
85066;BME280;75401;52.588;13.224;2024-01-15T10:48:19;98930.09;;;4.97;70.06
85066;BME280;75401;52.588;13.224;2024-01-15T10:50:45;98930.28;;;4.95;70.09
85066;BME280;75401;52.588;13.224;2024-01-15T10:53:14;98941.84;;;4.94;70.12
85066;BME280;75401;52.588;13.224;2024-01-15T10:55:41;98928.56;;;4.86;70.71
85066;BME280;75401;52.588;13.224;2024-01-15T10:58:07;98924.66;;;5.06;69.77
85066;BME280;75401;52.588;13.224;2024-01-15T11:00:33;98898.13;;;4.98;70.19
85066;BME280;75401;52.588;13.224;2024-01-15T11:03:00;98929.44;;;4.95;69.74
85066;BME280;75401;52.588;13.224;2024-01-15T11:05:26;98927.44;;;4.97;70.57
85066;BME280;75401;52.588;13.224;2024-01-15T11:07:54;98933.91;;;4.94;70.07
85066;BME280;75401;52.588;13.224;2024-01-15T11:10:41;98937.44;;;4.69;70.21
85066;BME280;75401;52.588;13.224;2024-01-15T11:13:09;98943.31;;;4.89;70.45
85066;BME280;75401;52.588;13.224;2024-01-15T11:15:54;98930.19;;;4.79;70.63
85066;BME280;75401;52.588;13.224;2024-01-15T11:18:19;98939.81;;;4.80;71.13
85066;BME280;75401;52.588;13.224;2024-01-15T11:23:43;98947.31;;;4.93;71.23
85066;BME280;75401;52.588;13.224;2024-01-15T11:26:29;98943.00;;;4.92;71.23
85066;BME280;75401;52.588;13.224;2024-01-15T11:28:55;98932.56;;;4.98;71.32
85066;BME280;75401;52.588;13.224;2024-01-15T11:31:20;98938.47;;;4.76;71.60
85066;BME280;75401;52.588;13.224;2024-01-15T11:33:49;98940.94;;;4.78;71.76
85066;BME280;75401;52.588;13.224;2024-01-15T11:36:15;98958.50;;;4.79;72.21
85066;BME280;75401;52.588;13.224;2024-01-15T11:38:40;98953.63;;;4.66;72.70
85066;BME280;75401;52.588;13.224;2024-01-15T11:41:13;98956.47;;;4.73;73.43
85066;BME280;75401;52.588;13.224;2024-01-15T11:43:40;98960.72;;;4.32;76.21
85066;BME280;75401;52.588;13.224;2024-01-15T11:46:11;98966.25;;;3.95;78.02
85066;BME280;75401;52.588;13.224;2024-01-15T11:48:42;98974.59;;;4.26;77.92
85066;BME280;75401;52.588;13.224;2024-01-15T11:51:10;98964.47;;;4.04;78.68
85066;BME280;75401;52.588;13.224;2024-01-15T11:53:40;98955.16;;;3.74;79.25
85066;BME280;75401;52.588;13.224;2024-01-15T11:56:12;98970.19;;;3.73;80.14
85066;BME280;75401;52.588;13.224;2024-01-15T11:58:41;98966.84;;;3.89;79.57
85066;BME280;75401;52.588;13.224;2024-01-15T12:01:06;98962.69;;;3.87;79.54
85066;BME280;75401;52.588;13.224;2024-01-15T12:03:32;98963.91;;;3.92;79.02
85066;BME280;75401;52.588;13.224;2024-01-15T12:05:58;98957.66;;;3.93;78.98
85066;BME280;75401;52.588;13.224;2024-01-15T12:08:24;98964.50;;;3.86;79.51
85066;BME280;75401;52.588;13.224;2024-01-15T12:10:49;98958.25;;;3.87;78.96
85066;BME280;75401;52.588;13.224;2024-01-15T12:13:15;98974.94;;;4.05;78.59
85066;BME280;75401;52.588;13.224;2024-01-15T12:15:42;98968.28;;;4.27;77.47
85066;BME280;75401;52.588;13.224;2024-01-15T12:18:09;98979.81;;;4.43;76.49
85066;BME280;75401;52.588;13.224;2024-01-15T12:20:35;98957.63;;;4.36;76.40
85066;BME280;75401;52.588;13.224;2024-01-15T12:23:01;98972.19;;;4.15;77.22
85066;BME280;75401;52.588;13.224;2024-01-15T12:25:27;98963.00;;;4.27;76.65
85066;BME280;75401;52.588;13.224;2024-01-15T12:27:54;98975.78;;;4.31;76.43
85066;BME280;75401;52.588;13.224;2024-01-15T12:30:19;98980.84;;;4.25;77.12
85066;BME280;75401;52.588;13.224;2024-01-15T12:32:46;98974.16;;;4.38;77.26
85066;BME280;75401;52.588;13.224;2024-01-15T12:35:11;98983.63;;;4.41;77.02
85066;BME280;75401;52.588;13.224;2024-01-15T12:37:37;98983.03;;;4.29;77.73
85066;BME280;75401;52.588;13.224;2024-01-15T12:40:03;98992.50;;;4.14;77.98
85066;BME280;75401;52.588;13.224;2024-01-15T12:42:28;98983.16;;;4.02;78.85
85066;BME280;75401;52.588;13.224;2024-01-15T12:44:55;98989.66;;;4.08;78.73
85066;BME280;75401;52.588;13.224;2024-01-15T12:47:21;98982.19;;;4.03;78.20
85066;BME280;75401;52.588;13.224;2024-01-15T12:49:48;98982.00;;;4.22;78.09
85066;BME280;75401;52.588;13.224;2024-01-15T12:52:13;98980.66;;;4.18;78.13
85066;BME280;75401;52.588;13.224;2024-01-15T12:54:38;98971.56;;;4.21;77.82
85066;BME280;75401;52.588;13.224;2024-01-15T12:57:04;98991.22;;;4.18;77.57